windsock image

Welcome to Bigfield Strip.

anemometer image
     

 Help for dials.  
 
Local Met:

Wind:   
10 Min average:  
287 ° / 2.5 kts (1.7)
281° / 3.5

Temperature:  
11.0°C C
Dew Point:  
8.0°C C
QNH:  
Trend:  
1020.8 mb mb
-0.7mb/hr
BigField Strip. This image updates approximately every minute, it can have a two minute delay.  
 

Humidity:  
82 %
Sunrise:   07:10z
Sunset:   17:25z
Updated:  
  UTC
 
   More met info, trends, radar, history etc. available here   

LUTON Metar   EGGW 191350Z AUTO 26012KT 9999 OVC017 10/07 Q1021
 
  TAF   2017/02/19 12:29 TAF AMD EGGW 191222Z 1912/2012 25009KT 9999 SCT022 TEMPO 1912/1916 BKN012 BECMG 1918/1921 6000 BKN005 TEMPO 1920/2008 0300 -DZ FG BKN001 PROB30 TEMPO 2003/2006 RADZ BECMG 2008/2010 BKN012 BECMG 2010/2012 9999 SCT012 BKN030
 
BENSON Metar   EGUB 191350Z 24007KT 9999 OVC019 11/07 Q1022 WHT NOSIG
 
  TAF   2017/02/19 12:03 TAF EGUB 191046Z 1912/1919 25008KT 9999 BKN022 PROB40 1912/1914 BKN025 BECMG 1914/1916 BKN012 PROB40 TEMPO 1916/1919 6000 -RADZ SCT006
 
Big Field view 1 icon   Big Field view 2 icon   Big Field view 3 icon   Chart AL3a in PDF icon   Chart AL3a in Word icon

WARNING:
This information is provided by the Airstrip unofficial weather station, DO NOT depend on the data provided here for any purpose.
This page is updated for latest Metars & TAF's every 5 minutes. Refresh the browser to check for the lastest.
Page designed for a minimum browser size of 1024x768.
© Copyright 2017 BigField Strip. This page auto generated 14:06 UTC - 19/02/2017   Contact Us
Valid HTML 4.01 Transitional     Windows uptime: 6 Days 11 Hours 34 Minutes 28 Seconds    WD started: 02:37 13/02/17    Free memory: 1509MB     Valid CSS!